sensor_id;sensor_type;location;lat;lon;timestamp;pressure;altitude;pressure_sealevel;temperature;humidity
65329;BME280;51941;52.210;5.158;2023-02-22T00:00:11;101368.63;;;7.20;96.14
65329;BME280;51941;52.210;5.158;2023-02-22T00:02:48;101509.31;;;8.15;96.23
65329;BME280;51941;52.210;5.158;2023-02-22T00:05:15;101507.06;;;8.12;96.11
65329;BME280;51941;52.210;5.158;2023-02-22T00:07:45;101505.44;;;8.11;96.18
65329;BME280;51941;52.210;5.158;2023-02-22T00:10:14;101512.72;;;8.09;96.00
65329;BME280;51941;52.210;5.158;2023-02-22T00:12:45;101498.53;;;8.03;96.02
65329;BME280;51941;52.210;5.158;2023-02-22T00:15:15;101509.72;;;8.12;95.80
65329;BME280;51941;52.210;5.158;2023-02-22T00:17:42;101515.97;;;8.04;95.80
65329;BME280;51941;52.210;5.158;2023-02-22T00:20:10;101427.50;;;7.41;95.80
65329;BME280;51941;52.210;5.158;2023-02-22T00:22:39;101481.41;;;7.79;95.99
65329;BME280;51941;52.210;5.158;2023-02-22T00:25:07;101504.19;;;8.00;96.35
65329;BME280;51941;52.210;5.158;2023-02-22T00:27:35;101514.53;;;8.01;96.34
65329;BME280;51941;52.210;5.158;2023-02-22T00:30:02;101475.31;;;7.79;96.10
65329;BME280;51941;52.210;5.158;2023-02-22T00:32:30;101512.03;;;7.87;96.10
65329;BME280;51941;52.210;5.158;2023-02-22T00:34:57;101511.63;;;7.83;96.03
65329;BME280;51941;52.210;5.158;2023-02-22T00:37:24;101503.72;;;7.83;95.94
65329;BME280;51941;52.210;5.158;2023-02-22T00:39:51;101505.91;;;7.80;96.01
65329;BME280;51941;52.210;5.158;2023-02-22T00:42:19;101497.59;;;7.76;96.00
65329;BME280;51941;52.210;5.158;2023-02-22T00:44:47;101495.16;;;7.75;96.08
65329;BME280;51941;52.210;5.158;2023-02-22T00:47:14;101497.94;;;7.66;96.38
65329;BME280;51941;52.210;5.158;2023-02-22T00:49:40;101495.31;;;7.66;96.41
65329;BME280;51941;52.210;5.158;2023-02-22T00:52:08;101490.66;;;7.68;96.50
65329;BME280;51941;52.210;5.158;2023-02-22T00:54:35;101454.69;;;7.48;96.61
65329;BME280;51941;52.210;5.158;2023-02-22T00:57:02;101475.25;;;7.65;96.75
65329;BME280;51941;52.210;5.158;2023-02-22T00:59:29;101473.81;;;7.63;96.91
65329;BME280;51941;52.210;5.158;2023-02-22T01:01:59;101479.06;;;7.63;96.94
65329;BME280;51941;52.210;5.158;2023-02-22T01:04:26;101476.84;;;7.60;97.15
65329;BME280;51941;52.210;5.158;2023-02-22T01:06:52;101474.63;;;7.63;96.94
65329;BME280;51941;52.210;5.158;2023-02-22T01:09:20;101303.13;;;6.63;96.80
65329;BME280;51941;52.210;5.158;2023-02-22T01:11:47;101470.59;;;7.67;96.93
65329;BME280;51941;52.210;5.158;2023-02-22T01:14:16;101474.88;;;7.68;96.88
65329;BME280;51941;52.210;5.158;2023-02-22T01:16:45;101471.41;;;7.68;96.68
65329;BME280;51941;52.210;5.158;2023-02-22T01:19:14;101479.31;;;7.68;96.83
65329;BME280;51941;52.210;5.158;2023-02-22T01:21:40;101479.31;;;7.68;96.70
65329;BME280;51941;52.210;5.158;2023-02-22T01:24:08;101468.38;;;7.71;96.72
65329;BME280;51941;52.210;5.158;2023-02-22T01:26:34;101467.16;;;7.67;96.71
65329;BME280;51941;52.210;5.158;2023-02-22T01:29:02;101463.88;;;7.65;96.91
65329;BME280;51941;52.210;5.158;2023-02-22T01:31:29;101464.50;;;7.67;96.89
65329;BME280;51941;52.210;5.158;2023-02-22T01:33:57;101463.25;;;7.63;96.91
65329;BME280;51941;52.210;5.158;2023-02-22T01:36:25;101449.84;;;7.51;97.06
65329;BME280;51941;52.210;5.158;2023-02-22T01:38:52;101463.88;;;7.58;97.33
65329;BME280;51941;52.210;5.158;2023-02-22T01:41:19;101274.22;;;6.35;97.46
65329;BME280;51941;52.210;5.158;2023-02-22T01:43:46;101461.41;;;7.57;97.69
65329;BME280;51941;52.210;5.158;2023-02-22T01:46:22;101427.13;;;7.44;97.57
65329;BME280;51941;52.210;5.158;2023-02-22T01:48:51;101369.56;;;7.06;97.34
65329;BME280;51941;52.210;5.158;2023-02-22T01:51:21;101438.09;;;7.54;97.64
65329;BME280;51941;52.210;5.158;2023-02-22T01:53:54;101440.88;;;7.46;97.64
65329;BME280;51941;52.210;5.158;2023-02-22T01:56:24;101437.66;;;7.44;97.35
65329;BME280;51941;52.210;5.158;2023-02-22T01:58:53;101443.69;;;7.38;97.43
65329;BME280;51941;52.210;5.158;2023-02-22T02:01:22;101342.28;;;6.79;97.56
65329;BME280;51941;52.210;5.158;2023-02-22T02:03:50;101435.59;;;7.39;97.59
65329;BME280;51941;52.210;5.158;2023-02-22T02:06:18;101436.22;;;7.41;97.17
65329;BME280;51941;52.210;5.158;2023-02-22T02:08:54;101430.72;;;7.36;97.11
65329;BME280;51941;52.210;5.158;2023-02-22T02:11:25;101428.81;;;7.23;97.55
65329;BME280;51941;52.210;5.158;2023-02-22T02:13:57;101428.63;;;7.25;98.06
65329;BME280;51941;52.210;5.158;2023-02-22T02:16:38;101244.94;;;6.10;97.37
65329;BME280;51941;52.210;5.158;2023-02-22T02:19:12;101422.53;;;7.24;97.67
65329;BME280;51941;52.210;5.158;2023-02-22T02:22:11;101416.63;;;7.22;97.22
65329;BME280;51941;52.210;5.158;2023-02-22T02:24:54;101414.19;;;7.21;97.04
65329;BME280;51941;52.210;5.158;2023-02-22T02:27:36;101412.56;;;7.20;96.96
65329;BME280;51941;52.210;5.158;2023-02-22T02:30:31;101405.47;;;7.20;96.63
65329;BME280;51941;52.210;5.158;2023-02-22T02:33:05;101403.81;;;7.13;96.39
65329;BME280;51941;52.210;5.158;2023-02-22T02:35:47;101399.53;;;7.05;96.36
65329;BME280;51941;52.210;5.158;2023-02-22T02:38:21;101298.88;;;6.34;95.93
65329;BME280;51941;52.210;5.158;2023-02-22T02:41:00;101270.63;;;6.15;96.13
65329;BME280;51941;52.210;5.158;2023-02-22T02:43:35;101388.25;;;6.83;96.24
65329;BME280;51941;52.210;5.158;2023-02-22T02:46:06;101379.94;;;6.80;96.28
65329;BME280;51941;52.210;5.158;2023-02-22T02:48:41;101277.66;;;6.08;96.17
65329;BME280;51941;52.210;5.158;2023-02-22T02:51:10;101338.63;;;6.46;96.52
65329;BME280;51941;52.210;5.158;2023-02-22T02:53:42;101377.47;;;6.72;96.55
65329;BME280;51941;52.210;5.158;2023-02-22T02:56:10;101376.44;;;6.73;96.49
65329;BME280;51941;52.210;5.158;2023-02-22T02:58:43;101380.31;;;6.77;96.40
65329;BME280;51941;52.210;5.158;2023-02-22T03:01:21;101366.94;;;6.72;96.34
65329;BME280;51941;52.210;5.158;2023-02-22T03:04:06;101372.41;;;6.77;96.37
65329;BME280;51941;52.210;5.158;2023-02-22T03:09:55;101368.59;;;6.79;96.43
65329;BME280;51941;52.210;5.158;2023-02-22T03:12:34;101338.88;;;6.57;96.51
65329;BME280;51941;52.210;5.158;2023-02-22T03:15:11;101360.03;;;6.71;96.81
65329;BME280;51941;52.210;5.158;2023-02-22T03:17:50;101362.41;;;6.66;96.93
65329;BME280;51941;52.210;5.158;2023-02-22T03:20:27;101327.66;;;6.42;97.23
65329;BME280;51941;52.210;5.158;2023-02-22T03:23:02;101358.13;;;6.58;97.29
65329;BME280;51941;52.210;5.158;2023-02-22T03:25:33;101344.28;;;6.49;97.55
65329;BME280;51941;52.210;5.158;2023-02-22T03:28:07;101157.78;;;5.30;97.36
65329;BME280;51941;52.210;5.158;2023-02-22T03:30:39;101345.94;;;6.50;97.57
65329;BME280;51941;52.210;5.158;2023-02-22T03:33:10;101347.38;;;6.53;97.51
65329;BME280;51941;52.210;5.158;2023-02-22T03:35:45;101346.75;;;6.51;97.78
65329;BME280;51941;52.210;5.158;2023-02-22T03:38:15;101345.28;;;6.48;97.85
65329;BME280;51941;52.210;5.158;2023-02-22T03:40:48;101252.66;;;5.91;97.86
65329;BME280;51941;52.210;5.158;2023-02-22T03:43:20;101335.66;;;6.55;97.76
65329;BME280;51941;52.210;5.158;2023-02-22T03:45:53;101235.63;;;5.87;97.62
65329;BME280;51941;52.210;5.158;2023-02-22T03:48:24;101332.63;;;6.59;97.56
65329;BME280;51941;52.210;5.158;2023-02-22T03:50:56;101334.88;;;6.62;97.38
65329;BME280;51941;52.210;5.158;2023-02-22T03:53:25;101337.16;;;6.65;97.49
65329;BME280;51941;52.210;5.158;2023-02-22T03:55:54;101330.66;;;6.67;97.30
65329;BME280;51941;52.210;5.158;2023-02-22T03:58:23;101324.78;;;6.65;97.01
65329;BME280;51941;52.210;5.158;2023-02-22T04:00:53;101237.13;;;5.96;97.36
65329;BME280;51941;52.210;5.158;2023-02-22T04:03:21;101310.56;;;6.53;97.17
65329;BME280;51941;52.210;5.158;2023-02-22T04:05:49;101313.41;;;6.58;97.24
65329;BME280;51941;52.210;5.158;2023-02-22T04:08:19;101313.03;;;6.61;97.22
65329;BME280;51941;52.210;5.158;2023-02-22T04:10:46;101213.47;;;5.96;96.98
65329;BME280;51941;52.210;5.158;2023-02-22T04:13:15;101304.50;;;6.59;97.08
65329;BME280;51941;52.210;5.158;2023-02-22T04:15:45;101144.56;;;5.45;96.88
65329;BME280;51941;52.210;5.158;2023-02-22T04:18:12;101315.50;;;6.41;97.06
65329;BME280;51941;52.210;5.158;2023-02-22T04:20:40;101294.88;;;6.38;97.12
65329;BME280;51941;52.210;5.158;2023-02-22T04:23:19;101315.91;;;6.38;97.42
65329;BME280;51941;52.210;5.158;2023-02-22T04:25:47;101305.16;;;6.33;97.96
65329;BME280;51941;52.210;5.158;2023-02-22T04:28:16;101202.75;;;5.69;97.97
65329;BME280;51941;52.210;5.158;2023-02-22T04:30:51;101297.88;;;6.35;98.03
65329;BME280;51941;52.210;5.158;2023-02-22T04:33:18;101287.19;;;6.37;98.04
65329;BME280;51941;52.210;5.158;2023-02-22T04:35:45;101289.81;;;6.37;97.62
65329;BME280;51941;52.210;5.158;2023-02-22T04:38:13;101278.38;;;6.23;98.12
65329;BME280;51941;52.210;5.158;2023-02-22T04:40:41;101277.19;;;6.26;98.27
65329;BME280;51941;52.210;5.158;2023-02-22T04:43:08;101273.56;;;6.27;98.30
65329;BME280;51941;52.210;5.158;2023-02-22T04:45:35;101268.53;;;6.32;98.34
65329;BME280;51941;52.210;5.158;2023-02-22T04:48:04;101138.28;;;5.39;98.14
65329;BME280;51941;52.210;5.158;2023-02-22T04:50:31;101256.16;;;6.26;98.23
65329;BME280;51941;52.210;5.158;2023-02-22T04:52:58;101142.75;;;5.45;98.30
65329;BME280;51941;52.210;5.158;2023-02-22T04:55:25;101264.66;;;6.28;98.20
65329;BME280;51941;52.210;5.158;2023-02-22T04:57:54;101262.84;;;6.28;98.21
65329;BME280;51941;52.210;5.158;2023-02-22T05:00:21;101257.97;;;6.25;98.15
65329;BME280;51941;52.210;5.158;2023-02-22T05:02:50;101270.56;;;6.30;98.40
65329;BME280;51941;52.210;5.158;2023-02-22T05:05:19;101262.41;;;6.25;98.50
65329;BME280;51941;52.210;5.158;2023-02-22T05:07:47;101260.97;;;6.22;98.60
65329;BME280;51941;52.210;5.158;2023-02-22T05:10:14;101152.19;;;5.61;98.47
65329;BME280;51941;52.210;5.158;2023-02-22T05:12:43;101229.97;;;6.11;99.27
65329;BME280;51941;52.210;5.158;2023-02-22T05:15:15;101252.34;;;6.28;99.34
65329;BME280;51941;52.210;5.158;2023-02-22T05:17:42;101147.38;;;5.64;99.23
65329;BME280;51941;52.210;5.158;2023-02-22T05:20:15;101119.75;;;5.47;98.82
65329;BME280;51941;52.210;5.158;2023-02-22T05:22:43;101236.09;;;6.18;99.43
65329;BME280;51941;52.210;5.158;2023-02-22T05:25:10;101235.91;;;6.20;99.41
65329;BME280;51941;52.210;5.158;2023-02-22T05:27:37;101239.94;;;6.22;99.21
65329;BME280;51941;52.210;5.158;2023-02-22T05:30:04;101169.50;;;5.76;99.51
65329;BME280;51941;52.210;5.158;2023-02-22T05:32:34;101221.31;;;6.17;99.66
65329;BME280;51941;52.210;5.158;2023-02-22T05:35:01;101230.25;;;6.23;99.70
65329;BME280;51941;52.210;5.158;2023-02-22T05:37:30;101223.34;;;6.22;99.84
65329;BME280;51941;52.210;5.158;2023-02-22T05:39:57;101219.94;;;6.21;99.40
65329;BME280;51941;52.210;5.158;2023-02-22T05:42:24;101208.50;;;6.07;99.53
65329;BME280;51941;52.210;5.158;2023-02-22T05:44:51;101229.19;;;6.17;99.58
65329;BME280;51941;52.210;5.158;2023-02-22T05:47:17;101225.56;;;6.18;99.58
65329;BME280;51941;52.210;5.158;2023-02-22T05:49:46;101235.47;;;6.16;99.64
65329;BME280;51941;52.210;5.158;2023-02-22T05:52:12;101225.94;;;6.15;99.82
65329;BME280;51941;52.210;5.158;2023-02-22T05:54:39;101220.69;;;6.15;100.00
65329;BME280;51941;52.210;5.158;2023-02-22T05:57:06;101217.25;;;6.14;100.00
65329;BME280;51941;52.210;5.158;2023-02-22T05:59:33;101214.63;;;6.14;100.00
65329;BME280;51941;52.210;5.158;2023-02-22T06:02:00;101216.88;;;6.17;100.00
65329;BME280;51941;52.210;5.158;2023-02-22T06:04:27;101128.50;;;5.54;100.00
65329;BME280;51941;52.210;5.158;2023-02-22T06:06:56;101210.81;;;6.17;100.00
65329;BME280;51941;52.210;5.158;2023-02-22T06:09:23;101122.47;;;5.60;100.00
65329;BME280;51941;52.210;5.158;2023-02-22T06:11:49;101201.88;;;6.11;100.00
65329;BME280;51941;52.210;5.158;2023-02-22T06:14:16;101188.66;;;6.05;100.00
65329;BME280;51941;52.210;5.158;2023-02-22T06:16:43;101197.56;;;6.04;100.00
65329;BME280;51941;52.210;5.158;2023-02-22T06:19:10;101194.56;;;6.07;100.00
65329;BME280;51941;52.210;5.158;2023-02-22T06:21:37;101194.75;;;6.05;100.00
65329;BME280;51941;52.210;5.158;2023-02-22T06:24:05;101210.59;;;6.12;100.00
65329;BME280;51941;52.210;5.158;2023-02-22T06:26:32;101204.69;;;6.10;100.00
65329;BME280;51941;52.210;5.158;2023-02-22T06:28:59;101200.44;;;6.09;100.00
65329;BME280;51941;52.210;5.158;2023-02-22T06:31:26;101202.88;;;6.10;100.00
65329;BME280;51941;52.210;5.158;2023-02-22T06:33:53;101206.91;;;6.13;100.00
65329;BME280;51941;52.210;5.158;2023-02-22T06:36:20;101207.72;;;6.13;100.00
65329;BME280;51941;52.210;5.158;2023-02-22T06:38:46;101207.72;;;6.13;100.00
65329;BME280;51941;52.210;5.158;2023-02-22T06:41:14;101206.72;;;6.14;100.00
65329;BME280;51941;52.210;5.158;2023-02-22T06:43:41;101203.09;;;6.15;100.00
65329;BME280;51941;52.210;5.158;2023-02-22T06:46:09;101189.31;;;6.07;100.00
65329;BME280;51941;52.210;5.158;2023-02-22T06:48:36;101187.28;;;6.09;100.00
65329;BME280;51941;52.210;5.158;2023-02-22T06:51:04;101186.84;;;6.05;100.00
65329;BME280;51941;52.210;5.158;2023-02-22T06:53:32;101190.56;;;6.11;100.00
65329;BME280;51941;52.210;5.158;2023-02-22T06:56:00;101198.19;;;6.06;100.00
65329;BME280;51941;52.210;5.158;2023-02-22T06:58:28;101197.00;;;6.08;100.00
65329;BME280;51941;52.210;5.158;2023-02-22T07:00:55;101203.25;;;6.07;100.00
65329;BME280;51941;52.210;5.158;2023-02-22T07:03:22;101192.97;;;6.12;100.00
65329;BME280;51941;52.210;5.158;2023-02-22T07:05:49;101199.09;;;6.20;100.00
65329;BME280;51941;52.210;5.158;2023-02-22T07:08:15;101203.94;;;6.23;100.00
65329;BME280;51941;52.210;5.158;2023-02-22T07:10:42;101198.91;;;6.21;100.00
65329;BME280;51941;52.210;5.158;2023-02-22T07:13:09;101189.00;;;6.23;100.00
65329;BME280;51941;52.210;5.158;2023-02-22T07:15:37;101119.81;;;5.82;100.00
65329;BME280;51941;52.210;5.158;2023-02-22T07:18:04;101186.19;;;6.25;100.00
65329;BME280;51941;52.210;5.158;2023-02-22T07:20:32;101093.88;;;5.72;100.00
65329;BME280;51941;52.210;5.158;2023-02-22T07:22:59;101162.06;;;6.14;100.00
65329;BME280;51941;52.210;5.158;2023-02-22T07:25:26;101186.44;;;6.30;100.00
65329;BME280;51941;52.210;5.158;2023-02-22T07:27:52;101163.03;;;6.07;100.00
65329;BME280;51941;52.210;5.158;2023-02-22T07:30:21;101206.06;;;6.34;100.00
65329;BME280;51941;52.210;5.158;2023-02-22T07:32:53;101210.31;;;6.35;100.00
65329;BME280;51941;52.210;5.158;2023-02-22T07:35:21;101197.72;;;6.30;100.00
65329;BME280;51941;52.210;5.158;2023-02-22T07:37:48;101198.16;;;6.34;100.00
65329;BME280;51941;52.210;5.158;2023-02-22T07:40:16;101196.19;;;6.42;100.00
65329;BME280;51941;52.210;5.158;2023-02-22T07:42:54;101201.69;;;6.47;100.00
65329;BME280;51941;52.210;5.158;2023-02-22T07:45:21;101201.91;;;6.52;100.00
65329;BME280;51941;52.210;5.158;2023-02-22T07:47:49;101191.81;;;6.56;100.00
65329;BME280;51941;52.210;5.158;2023-02-22T07:50:18;101186.59;;;6.63;100.00
65329;BME280;51941;52.210;5.158;2023-02-22T07:52:45;101190.84;;;6.64;100.00
65329;BME280;51941;52.210;5.158;2023-02-22T07:55:13;101195.88;;;6.65;100.00
65329;BME280;51941;52.210;5.158;2023-02-22T07:57:41;101149.19;;;6.26;100.00
65329;BME280;51941;52.210;5.158;2023-02-22T08:00:09;101209.03;;;6.65;100.00
65329;BME280;51941;52.210;5.158;2023-02-22T08:02:40;101212.06;;;6.55;100.00
65329;BME280;51941;52.210;5.158;2023-02-22T08:05:08;101209.63;;;6.61;100.00
65329;BME280;51941;52.210;5.158;2023-02-22T08:07:38;101204.22;;;6.69;100.00
65329;BME280;51941;52.210;5.158;2023-02-22T08:10:06;101200.38;;;6.71;100.00
65329;BME280;51941;52.210;5.158;2023-02-22T08:12:34;101198.75;;;6.70;100.00
65329;BME280;51941;52.210;5.158;2023-02-22T08:15:02;101095.44;;;5.94;100.00
65329;BME280;51941;52.210;5.158;2023-02-22T08:17:29;101218.63;;;6.79;100.00
65329;BME280;51941;52.210;5.158;2023-02-22T08:19:56;101080.94;;;6.05;100.00
65329;BME280;51941;52.210;5.158;2023-02-22T08:22:23;101196.22;;;6.90;100.00
65329;BME280;51941;52.210;5.158;2023-02-22T08:24:53;101190.53;;;6.93;100.00
65329;BME280;51941;52.210;5.158;2023-02-22T08:27:22;101198.22;;;6.94;100.00
65329;BME280;51941;52.210;5.158;2023-02-22T08:29:50;101080.66;;;6.34;100.00
65329;BME280;51941;52.210;5.158;2023-02-22T08:32:17;101186.50;;;7.04;100.00
65329;BME280;51941;52.210;5.158;2023-02-22T08:34:45;101199.47;;;7.05;100.00
65329;BME280;51941;52.210;5.158;2023-02-22T08:37:12;101192.41;;;7.12;100.00
65329;BME280;51941;52.210;5.158;2023-02-22T08:39:39;101202.56;;;7.15;100.00
65329;BME280;51941;52.210;5.158;2023-02-22T08:42:07;101205.56;;;7.06;100.00
65329;BME280;51941;52.210;5.158;2023-02-22T08:44:34;101206.81;;;7.16;100.00
65329;BME280;51941;52.210;5.158;2023-02-22T08:47:01;101111.13;;;6.70;100.00
65329;BME280;51941;52.210;5.158;2023-02-22T08:49:28;101194.72;;;7.35;100.00
65329;BME280;51941;52.210;5.158;2023-02-22T08:51:55;101194.31;;;7.38;100.00
65329;BME280;51941;52.210;5.158;2023-02-22T08:54:22;101190.28;;;7.42;100.00
65329;BME280;51941;52.210;5.158;2023-02-22T08:56:49;101188.66;;;7.48;100.00
65329;BME280;51941;52.210;5.158;2023-02-22T08:59:17;101187.44;;;7.50;99.87
65329;BME280;51941;52.210;5.158;2023-02-22T09:01:44;101186.81;;;7.55;99.71
65329;BME280;51941;52.210;5.158;2023-02-22T09:04:11;101094.78;;;7.01;99.35
65329;BME280;51941;52.210;5.158;2023-02-22T09:06:39;101174.28;;;7.57;99.50
65329;BME280;51941;52.210;5.158;2023-02-22T09:09:06;101033.66;;;6.72;98.75
65329;BME280;51941;52.210;5.158;2023-02-22T09:11:33;101171.25;;;7.66;99.01
65329;BME280;51941;52.210;5.158;2023-02-22T09:14:00;101173.25;;;7.71;98.83
65329;BME280;51941;52.210;5.158;2023-02-22T09:16:29;100976.56;;;6.60;98.34
65329;BME280;51941;52.210;5.158;2023-02-22T09:18:56;101158.28;;;7.78;98.48
65329;BME280;51941;52.210;5.158;2023-02-22T09:21:23;101166.34;;;7.90;97.93
65329;BME280;51941;52.210;5.158;2023-02-22T09:23:50;101165.31;;;7.97;97.85
65329;BME280;51941;52.210;5.158;2023-02-22T09:26:19;101079.03;;;7.47;97.38
65329;BME280;51941;52.210;5.158;2023-02-22T09:28:48;101159.03;;;8.12;97.22
65329;BME280;51941;52.210;5.158;2023-02-22T09:31:14;101145.63;;;8.20;96.58
65329;BME280;51941;52.210;5.158;2023-02-22T09:33:43;101138.13;;;8.23;96.46
65329;BME280;51941;52.210;5.158;2023-02-22T09:36:10;101134.19;;;8.32;96.25
65329;BME280;51941;52.210;5.158;2023-02-22T09:38:36;100961.13;;;7.29;95.25
65329;BME280;51941;52.210;5.158;2023-02-22T09:41:09;101131.94;;;8.49;95.23
65329;BME280;51941;52.210;5.158;2023-02-22T09:43:43;101132.34;;;8.46;93.97
65329;BME280;51941;52.210;5.158;2023-02-22T09:46:21;101140.78;;;8.61;94.05
65329;BME280;51941;52.210;5.158;2023-02-22T09:49:16;101130.84;;;8.63;93.19
65329;BME280;51941;52.210;5.158;2023-02-22T09:51:47;101112.94;;;8.72;93.11
65329;BME280;51941;52.210;5.158;2023-02-22T09:54:21;101003.06;;;8.08;93.23
65329;BME280;51941;52.210;5.158;2023-02-22T09:56:52;101028.94;;;8.31;92.60
65329;BME280;51941;52.210;5.158;2023-02-22T09:59:25;101117.25;;;8.98;92.15
65329;BME280;51941;52.210;5.158;2023-02-22T10:01:59;101112.09;;;9.09;92.14
65329;BME280;51941;52.210;5.158;2023-02-22T10:04:39;101111.44;;;9.14;91.38
65329;BME280;51941;52.210;5.158;2023-02-22T10:07:17;101113.28;;;9.20;91.23
65329;BME280;51941;52.210;5.158;2023-02-22T10:09:47;101077.97;;;9.08;90.42
65329;BME280;51941;52.210;5.158;2023-02-22T10:12:22;101119.25;;;9.34;89.52
65329;BME280;51941;52.210;5.158;2023-02-22T10:15:11;101115.19;;;9.56;89.55
65329;BME280;51941;52.210;5.158;2023-02-22T10:17:47;101027.59;;;9.09;88.94
65329;BME280;51941;52.210;5.158;2023-02-22T10:20:40;101115.25;;;9.74;88.46
65329;BME280;51941;52.210;5.158;2023-02-22T10:23:16;101116.84;;;9.75;88.01
65329;BME280;51941;52.210;5.158;2023-02-22T10:25:50;101009.13;;;9.09;87.93
65329;BME280;51941;52.210;5.158;2023-02-22T10:28:21;101085.81;;;9.71;87.81
65329;BME280;51941;52.210;5.158;2023-02-22T10:30:52;101114.25;;;9.93;86.84
65329;BME280;51941;52.210;5.158;2023-02-22T10:33:23;101011.38;;;9.31;86.74
65329;BME280;51941;52.210;5.158;2023-02-22T10:35:52;101124.91;;;10.05;85.99
65329;BME280;51941;52.210;5.158;2023-02-22T10:38:22;101120.13;;;10.14;86.15
65329;BME280;51941;52.210;5.158;2023-02-22T10:40:50;101117.63;;;10.19;85.43
65329;BME280;51941;52.210;5.158;2023-02-22T10:43:19;101115.06;;;10.30;85.77
65329;BME280;51941;52.210;5.158;2023-02-22T10:45:50;101043.56;;;9.82;85.67
65329;BME280;51941;52.210;5.158;2023-02-22T10:48:21;101118.84;;;10.35;83.72
65329;BME280;51941;52.210;5.158;2023-02-22T10:50:53;101120.53;;;10.47;84.41
65329;BME280;51941;52.210;5.158;2023-02-22T10:53:25;101112.19;;;10.50;83.15
65329;BME280;51941;52.210;5.158;2023-02-22T10:56:11;101113.78;;;10.51;82.85
65329;BME280;51941;52.210;5.158;2023-02-22T10:58:43;101101.94;;;10.54;83.82
65329;BME280;51941;52.210;5.158;2023-02-22T11:01:24;101092.03;;;10.49;83.29
65329;BME280;51941;52.210;5.158;2023-02-22T11:04:14;101082.84;;;10.52;82.75
65329;BME280;51941;52.210;5.158;2023-02-22T11:06:44;101068.91;;;10.56;82.83
65329;BME280;51941;52.210;5.158;2023-02-22T11:09:14;101081.63;;;10.66;82.96
65329;BME280;51941;52.210;5.158;2023-02-22T11:11:42;101095.28;;;10.63;81.42
65329;BME280;51941;52.210;5.158;2023-02-22T11:14:11;101099.78;;;10.62;81.30
65329;BME280;51941;52.210;5.158;2023-02-22T11:16:41;101103.50;;;10.73;81.88
65329;BME280;51941;52.210;5.158;2023-02-22T11:19:16;101031.03;;;10.26;81.06
65329;BME280;51941;52.210;5.158;2023-02-22T11:21:47;101108.22;;;10.71;79.84
65329;BME280;51941;52.210;5.158;2023-02-22T11:24:16;101104.84;;;10.82;79.91
65329;BME280;51941;52.210;5.158;2023-02-22T11:26:46;101105.56;;;10.89;79.96
65329;BME280;51941;52.210;5.158;2023-02-22T11:29:18;101111.00;;;10.94;80.46
65329;BME280;51941;52.210;5.158;2023-02-22T11:31:46;101102.72;;;11.02;79.69
65329;BME280;51941;52.210;5.158;2023-02-22T11:34:39;101100.06;;;11.02;79.19
65329;BME280;51941;52.210;5.158;2023-02-22T11:37:29;101101.44;;;11.05;79.87
65329;BME280;51941;52.210;5.158;2023-02-22T11:40:13;101016.09;;;10.50;79.23
65329;BME280;51941;52.210;5.158;2023-02-22T11:42:42;101091.34;;;11.14;79.71
65329;BME280;51941;52.210;5.158;2023-02-22T11:45:11;101093.75;;;11.15;79.71
65329;BME280;51941;52.210;5.158;2023-02-22T11:47:47;101082.00;;;11.11;79.42
65329;BME280;51941;52.210;5.158;2023-02-22T11:50:22;100999.44;;;10.73;79.68
65329;BME280;51941;52.210;5.158;2023-02-22T11:53:02;101082.81;;;11.23;78.93
65329;BME280;51941;52.210;5.158;2023-02-22T11:55:33;101076.25;;;11.26;79.40
65329;BME280;51941;52.210;5.158;2023-02-22T11:58:08;101074.06;;;11.34;79.45
65329;BME280;51941;52.210;5.158;2023-02-22T12:00:51;101064.72;;;11.32;79.00
65329;BME280;51941;52.210;5.158;2023-02-22T12:03:31;101069.94;;;11.27;78.62
65329;BME280;51941;52.210;5.158;2023-02-22T12:06:13;101055.19;;;11.19;78.38
65329;BME280;51941;52.210;5.158;2023-02-22T12:08:54;101056.09;;;11.25;79.34
65329;BME280;51941;52.210;5.158;2023-02-22T12:11:32;101055.41;;;11.29;78.94
65329;BME280;51941;52.210;5.158;2023-02-22T12:14:12;101053.81;;;11.28;78.79
65329;BME280;51941;52.210;5.158;2023-02-22T12:16:43;101053.44;;;11.13;78.24
65329;BME280;51941;52.210;5.158;2023-02-22T12:19:20;101044.34;;;11.21;78.90
65329;BME280;51941;52.210;5.158;2023-02-22T12:21:53;101049.75;;;11.26;79.33
65329;BME280;51941;52.210;5.158;2023-02-22T12:24:24;101040.78;;;11.27;78.79
65329;BME280;51941;52.210;5.158;2023-02-22T12:26:55;101031.34;;;11.31;79.27
65329;BME280;51941;52.210;5.158;2023-02-22T12:29:28;101034.31;;;11.34;78.72
65329;BME280;51941;52.210;5.158;2023-02-22T12:32:00;101035.25;;;11.40;78.92
65329;BME280;51941;52.210;5.158;2023-02-22T12:34:33;101005.97;;;11.23;78.36
65329;BME280;51941;52.210;5.158;2023-02-22T12:37:11;100842.09;;;10.34;77.84
65329;BME280;51941;52.210;5.158;2023-02-22T12:39:48;101023.72;;;11.46;77.67
65329;BME280;51941;52.210;5.158;2023-02-22T12:42:23;101035.00;;;11.65;78.12
65329;BME280;51941;52.210;5.158;2023-02-22T12:44:58;101018.63;;;11.68;77.94
65329;BME280;51941;52.210;5.158;2023-02-22T12:47:30;101039.25;;;11.77;77.27
65329;BME280;51941;52.210;5.158;2023-02-22T12:50:05;101000.78;;;11.52;76.43
65329;BME280;51941;52.210;5.158;2023-02-22T12:52:43;101007.09;;;11.62;76.90
65329;BME280;51941;52.210;5.158;2023-02-22T12:55:18;101027.72;;;11.84;77.33
65329;BME280;51941;52.210;5.158;2023-02-22T12:57:50;101031.97;;;11.85;76.91
65329;BME280;51941;52.210;5.158;2023-02-22T13:00:21;101032.09;;;11.90;76.89
65329;BME280;51941;52.210;5.158;2023-02-22T13:02:57;101014.69;;;11.82;76.79
65329;BME280;51941;52.210;5.158;2023-02-22T13:05:29;101036.31;;;12.02;76.73
65329;BME280;51941;52.210;5.158;2023-02-22T13:08:09;101031.91;;;12.08;76.39
65329;BME280;51941;52.210;5.158;2023-02-22T13:10:55;101034.66;;;12.13;75.61
65329;BME280;51941;52.210;5.158;2023-02-22T13:13:31;100925.50;;;11.53;76.19
65329;BME280;51941;52.210;5.158;2023-02-22T13:16:06;101024.75;;;12.20;75.85